sensor_id;sensor_type;location;lat;lon;timestamp;P1;durP1;ratioP1;P2;durP2;ratioP2
20344;SDS011;10330;48.816;9.278;2023-12-07T00:00:26;11.70;;;6.68;;
20344;SDS011;10330;48.816;9.278;2023-12-07T00:02:52;10.18;;;6.75;;
20344;SDS011;10330;48.816;9.278;2023-12-07T00:05:18;14.05;;;7.47;;
20344;SDS011;10330;48.816;9.278;2023-12-07T00:07:45;13.23;;;7.35;;
20344;SDS011;10330;48.816;9.278;2023-12-07T00:10:11;10.00;;;5.90;;
20344;SDS011;10330;48.816;9.278;2023-12-07T00:12:37;15.10;;;6.47;;
20344;SDS011;10330;48.816;9.278;2023-12-07T00:15:03;12.75;;;6.13;;
20344;SDS011;10330;48.816;9.278;2023-12-07T00:17:30;13.93;;;6.43;;
20344;SDS011;10330;48.816;9.278;2023-12-07T00:19:56;12.88;;;6.10;;
20344;SDS011;10330;48.816;9.278;2023-12-07T00:22:22;8.30;;;5.57;;
20344;SDS011;10330;48.816;9.278;2023-12-07T00:24:50;12.65;;;6.82;;
20344;SDS011;10330;48.816;9.278;2023-12-07T00:27:16;14.52;;;5.90;;
20344;SDS011;10330;48.816;9.278;2023-12-07T00:29:42;13.05;;;6.38;;
20344;SDS011;10330;48.816;9.278;2023-12-07T00:32:08;10.90;;;6.55;;
20344;SDS011;10330;48.816;9.278;2023-12-07T00:34:35;15.82;;;7.15;;
20344;SDS011;10330;48.816;9.278;2023-12-07T00:37:01;9.18;;;5.90;;
20344;SDS011;10330;48.816;9.278;2023-12-07T00:39:28;9.63;;;5.95;;
20344;SDS011;10330;48.816;9.278;2023-12-07T00:41:54;10.25;;;6.53;;
20344;SDS011;10330;48.816;9.278;2023-12-07T00:44:20;10.88;;;6.82;;
20344;SDS011;10330;48.816;9.278;2023-12-07T00:46:47;12.18;;;7.00;;
20344;SDS011;10330;48.816;9.278;2023-12-07T00:49:13;13.75;;;7.22;;
20344;SDS011;10330;48.816;9.278;2023-12-07T00:51:39;12.20;;;7.18;;
20344;SDS011;10330;48.816;9.278;2023-12-07T00:54:05;15.07;;;6.57;;
20344;SDS011;10330;48.816;9.278;2023-12-07T00:56:32;12.13;;;6.82;;
20344;SDS011;10330;48.816;9.278;2023-12-07T00:58:58;11.07;;;6.30;;
20344;SDS011;10330;48.816;9.278;2023-12-07T01:01:25;9.15;;;5.82;;
20344;SDS011;10330;48.816;9.278;2023-12-07T01:03:51;10.23;;;5.72;;
20344;SDS011;10330;48.816;9.278;2023-12-07T01:06:17;10.93;;;5.85;;
20344;SDS011;10330;48.816;9.278;2023-12-07T01:08:43;11.77;;;5.60;;
20344;SDS011;10330;48.816;9.278;2023-12-07T01:11:09;11.20;;;6.10;;
20344;SDS011;10330;48.816;9.278;2023-12-07T01:13:35;13.13;;;6.63;;
20344;SDS011;10330;48.816;9.278;2023-12-07T01:16:01;9.80;;;5.75;;
20344;SDS011;10330;48.816;9.278;2023-12-07T01:18:28;10.90;;;6.20;;
20344;SDS011;10330;48.816;9.278;2023-12-07T01:20:54;8.77;;;6.07;;
20344;SDS011;10330;48.816;9.278;2023-12-07T01:23:20;11.95;;;6.20;;
20344;SDS011;10330;48.816;9.278;2023-12-07T01:25:46;8.77;;;5.95;;
20344;SDS011;10330;48.816;9.278;2023-12-07T01:28:12;13.52;;;6.22;;
20344;SDS011;10330;48.816;9.278;2023-12-07T01:30:38;10.80;;;6.93;;
20344;SDS011;10330;48.816;9.278;2023-12-07T01:33:05;15.95;;;6.80;;
20344;SDS011;10330;48.816;9.278;2023-12-07T01:35:31;10.63;;;6.05;;
20344;SDS011;10330;48.816;9.278;2023-12-07T01:37:57;12.05;;;6.72;;
20344;SDS011;10330;48.816;9.278;2023-12-07T01:40:23;10.00;;;6.38;;
20344;SDS011;10330;48.816;9.278;2023-12-07T01:42:50;9.82;;;6.13;;
20344;SDS011;10330;48.816;9.278;2023-12-07T01:45:17;8.05;;;5.63;;
20344;SDS011;10330;48.816;9.278;2023-12-07T01:47:43;9.35;;;6.15;;
20344;SDS011;10330;48.816;9.278;2023-12-07T01:50:10;10.50;;;6.38;;
20344;SDS011;10330;48.816;9.278;2023-12-07T01:52:41;11.13;;;6.03;;
20344;SDS011;10330;48.816;9.278;2023-12-07T01:55:11;10.40;;;6.30;;
20344;SDS011;10330;48.816;9.278;2023-12-07T01:57:38;8.00;;;6.03;;
20344;SDS011;10330;48.816;9.278;2023-12-07T02:00:05;20.13;;;7.18;;
20344;SDS011;10330;48.816;9.278;2023-12-07T02:02:32;13.20;;;7.07;;
20344;SDS011;10330;48.816;9.278;2023-12-07T02:05:00;10.63;;;6.68;;
20344;SDS011;10330;48.816;9.278;2023-12-07T02:07:27;13.70;;;6.47;;
20344;SDS011;10330;48.816;9.278;2023-12-07T02:09:53;10.82;;;6.65;;
20344;SDS011;10330;48.816;9.278;2023-12-07T02:12:19;11.88;;;6.43;;
20344;SDS011;10330;48.816;9.278;2023-12-07T02:14:46;12.18;;;7.03;;
20344;SDS011;10330;48.816;9.278;2023-12-07T02:17:24;8.95;;;6.75;;
20344;SDS011;10330;48.816;9.278;2023-12-07T02:20:13;10.63;;;6.50;;
20344;SDS011;10330;48.816;9.278;2023-12-07T02:22:47;11.70;;;6.57;;
20344;SDS011;10330;48.816;9.278;2023-12-07T02:25:18;8.70;;;6.35;;
20344;SDS011;10330;48.816;9.278;2023-12-07T02:27:49;10.68;;;7.13;;
20344;SDS011;10330;48.816;9.278;2023-12-07T02:30:15;14.25;;;7.45;;
20344;SDS011;10330;48.816;9.278;2023-12-07T02:32:41;13.75;;;7.20;;
20344;SDS011;10330;48.816;9.278;2023-12-07T02:35:10;13.32;;;6.22;;
20344;SDS011;10330;48.816;9.278;2023-12-07T02:37:48;12.20;;;6.95;;
20344;SDS011;10330;48.816;9.278;2023-12-07T02:40:18;11.93;;;7.18;;
20344;SDS011;10330;48.816;9.278;2023-12-07T02:42:47;11.15;;;6.78;;
20344;SDS011;10330;48.816;9.278;2023-12-07T02:45:14;12.20;;;6.88;;
20344;SDS011;10330;48.816;9.278;2023-12-07T02:47:41;13.45;;;7.18;;
20344;SDS011;10330;48.816;9.278;2023-12-07T02:50:09;11.57;;;5.97;;
20344;SDS011;10330;48.816;9.278;2023-12-07T02:52:35;9.07;;;6.47;;
20344;SDS011;10330;48.816;9.278;2023-12-07T02:55:01;13.90;;;6.68;;
20344;SDS011;10330;48.816;9.278;2023-12-07T02:57:28;8.73;;;5.93;;
20344;SDS011;10330;48.816;9.278;2023-12-07T02:59:55;10.60;;;5.78;;
20344;SDS011;10330;48.816;9.278;2023-12-07T03:02:22;8.93;;;6.45;;
20344;SDS011;10330;48.816;9.278;2023-12-07T03:04:48;11.10;;;6.40;;
20344;SDS011;10330;48.816;9.278;2023-12-07T03:07:14;9.60;;;6.60;;
20344;SDS011;10330;48.816;9.278;2023-12-07T03:09:40;14.77;;;7.65;;
20344;SDS011;10330;48.816;9.278;2023-12-07T03:12:06;9.98;;;6.05;;
20344;SDS011;10330;48.816;9.278;2023-12-07T03:14:33;10.65;;;6.35;;
20344;SDS011;10330;48.816;9.278;2023-12-07T03:16:59;14.30;;;7.78;;
20344;SDS011;10330;48.816;9.278;2023-12-07T03:19:25;11.85;;;6.75;;
20344;SDS011;10330;48.816;9.278;2023-12-07T03:21:51;14.75;;;7.18;;
20344;SDS011;10330;48.816;9.278;2023-12-07T03:24:21;12.90;;;8.55;;
20344;SDS011;10330;48.816;9.278;2023-12-07T03:26:47;11.52;;;6.47;;
20344;SDS011;10330;48.816;9.278;2023-12-07T03:29:13;15.55;;;7.68;;
20344;SDS011;10330;48.816;9.278;2023-12-07T03:31:39;14.60;;;8.00;;
20344;SDS011;10330;48.816;9.278;2023-12-07T03:34:05;13.10;;;6.65;;
20344;SDS011;10330;48.816;9.278;2023-12-07T03:36:31;12.27;;;7.85;;
20344;SDS011;10330;48.816;9.278;2023-12-07T03:38:58;13.50;;;8.23;;
20344;SDS011;10330;48.816;9.278;2023-12-07T03:41:24;16.60;;;8.52;;
20344;SDS011;10330;48.816;9.278;2023-12-07T03:43:50;15.77;;;8.25;;
20344;SDS011;10330;48.816;9.278;2023-12-07T03:46:16;13.20;;;9.07;;
20344;SDS011;10330;48.816;9.278;2023-12-07T03:48:42;13.27;;;8.48;;
20344;SDS011;10330;48.816;9.278;2023-12-07T03:51:12;27.10;;;12.05;;
20344;SDS011;10330;48.816;9.278;2023-12-07T03:53:38;15.02;;;9.25;;
20344;SDS011;10330;48.816;9.278;2023-12-07T03:56:05;16.13;;;9.07;;
20344;SDS011;10330;48.816;9.278;2023-12-07T03:58:31;14.48;;;8.80;;
20344;SDS011;10330;48.816;9.278;2023-12-07T04:00:57;14.10;;;7.93;;
20344;SDS011;10330;48.816;9.278;2023-12-07T04:03:26;14.55;;;7.68;;
20344;SDS011;10330;48.816;9.278;2023-12-07T04:05:52;17.38;;;8.65;;
20344;SDS011;10330;48.816;9.278;2023-12-07T04:08:18;13.00;;;8.05;;
20344;SDS011;10330;48.816;9.278;2023-12-07T04:10:44;12.10;;;8.05;;
20344;SDS011;10330;48.816;9.278;2023-12-07T04:13:11;19.65;;;9.07;;
20344;SDS011;10330;48.816;9.278;2023-12-07T04:15:37;12.52;;;8.23;;
20344;SDS011;10330;48.816;9.278;2023-12-07T04:18:03;12.93;;;8.20;;
20344;SDS011;10330;48.816;9.278;2023-12-07T04:20:29;11.25;;;7.53;;
20344;SDS011;10330;48.816;9.278;2023-12-07T04:22:56;12.88;;;7.88;;
20344;SDS011;10330;48.816;9.278;2023-12-07T04:25:22;15.95;;;7.90;;
20344;SDS011;10330;48.816;9.278;2023-12-07T04:27:48;12.38;;;7.95;;
20344;SDS011;10330;48.816;9.278;2023-12-07T04:30:15;14.63;;;9.23;;
20344;SDS011;10330;48.816;9.278;2023-12-07T04:32:41;14.68;;;8.63;;
20344;SDS011;10330;48.816;9.278;2023-12-07T04:35:07;15.75;;;8.73;;
20344;SDS011;10330;48.816;9.278;2023-12-07T04:37:34;14.40;;;8.10;;
20344;SDS011;10330;48.816;9.278;2023-12-07T04:40:00;20.27;;;8.65;;
20344;SDS011;10330;48.816;9.278;2023-12-07T04:42:26;18.08;;;8.57;;
20344;SDS011;10330;48.816;9.278;2023-12-07T04:44:52;19.08;;;9.18;;
20344;SDS011;10330;48.816;9.278;2023-12-07T04:47:19;20.52;;;9.30;;
20344;SDS011;10330;48.816;9.278;2023-12-07T04:49:45;16.77;;;8.85;;
20344;SDS011;10330;48.816;9.278;2023-12-07T04:52:11;13.98;;;7.88;;
20344;SDS011;10330;48.816;9.278;2023-12-07T04:54:37;18.15;;;9.00;;
20344;SDS011;10330;48.816;9.278;2023-12-07T04:57:04;14.15;;;8.48;;
20344;SDS011;10330;48.816;9.278;2023-12-07T04:59:30;14.77;;;9.05;;
20344;SDS011;10330;48.816;9.278;2023-12-07T05:01:56;16.50;;;9.30;;
20344;SDS011;10330;48.816;9.278;2023-12-07T05:04:22;13.82;;;8.10;;
20344;SDS011;10330;48.816;9.278;2023-12-07T05:06:49;18.33;;;9.07;;
20344;SDS011;10330;48.816;9.278;2023-12-07T05:09:16;13.48;;;8.70;;
20344;SDS011;10330;48.816;9.278;2023-12-07T05:11:42;17.25;;;8.05;;
20344;SDS011;10330;48.816;9.278;2023-12-07T05:14:10;17.92;;;9.18;;
20344;SDS011;10330;48.816;9.278;2023-12-07T05:16:37;14.30;;;8.10;;
20344;SDS011;10330;48.816;9.278;2023-12-07T05:19:03;19.85;;;9.30;;
20344;SDS011;10330;48.816;9.278;2023-12-07T05:21:29;18.60;;;7.82;;
20344;SDS011;10330;48.816;9.278;2023-12-07T05:23:55;16.08;;;9.18;;
20344;SDS011;10330;48.816;9.278;2023-12-07T05:26:24;17.70;;;8.73;;
20344;SDS011;10330;48.816;9.278;2023-12-07T05:28:51;18.83;;;8.70;;
20344;SDS011;10330;48.816;9.278;2023-12-07T05:31:19;17.15;;;8.77;;
20344;SDS011;10330;48.816;9.278;2023-12-07T05:33:46;14.98;;;8.63;;
20344;SDS011;10330;48.816;9.278;2023-12-07T05:36:12;16.30;;;8.25;;
20344;SDS011;10330;48.816;9.278;2023-12-07T05:38:38;15.63;;;8.48;;
20344;SDS011;10330;48.816;9.278;2023-12-07T05:41:05;16.38;;;8.85;;
20344;SDS011;10330;48.816;9.278;2023-12-07T05:43:31;19.25;;;8.40;;
20344;SDS011;10330;48.816;9.278;2023-12-07T05:45:59;13.95;;;8.85;;
20344;SDS011;10330;48.816;9.278;2023-12-07T05:48:26;16.02;;;8.48;;
20344;SDS011;10330;48.816;9.278;2023-12-07T05:50:52;14.98;;;8.82;;
20344;SDS011;10330;48.816;9.278;2023-12-07T05:53:18;17.17;;;8.85;;
20344;SDS011;10330;48.816;9.278;2023-12-07T05:55:44;23.85;;;8.82;;
20344;SDS011;10330;48.816;9.278;2023-12-07T05:58:12;19.67;;;9.45;;
20344;SDS011;10330;48.816;9.278;2023-12-07T06:00:39;16.50;;;9.43;;
20344;SDS011;10330;48.816;9.278;2023-12-07T06:03:05;18.23;;;9.20;;
20344;SDS011;10330;48.816;9.278;2023-12-07T06:05:31;18.15;;;10.20;;
20344;SDS011;10330;48.816;9.278;2023-12-07T06:07:58;32.35;;;16.65;;
20344;SDS011;10330;48.816;9.278;2023-12-07T06:10:30;17.88;;;10.50;;
20344;SDS011;10330;48.816;9.278;2023-12-07T06:12:56;18.67;;;10.05;;
20344;SDS011;10330;48.816;9.278;2023-12-07T06:15:29;28.48;;;13.95;;
20344;SDS011;10330;48.816;9.278;2023-12-07T06:17:56;24.00;;;12.70;;
20344;SDS011;10330;48.816;9.278;2023-12-07T06:20:23;23.58;;;11.43;;
20344;SDS011;10330;48.816;9.278;2023-12-07T06:22:49;20.83;;;10.15;;
20344;SDS011;10330;48.816;9.278;2023-12-07T06:25:16;19.30;;;9.52;;
20344;SDS011;10330;48.816;9.278;2023-12-07T06:27:45;17.55;;;9.93;;
20344;SDS011;10330;48.816;9.278;2023-12-07T06:30:11;17.70;;;9.43;;
20344;SDS011;10330;48.816;9.278;2023-12-07T06:32:38;15.45;;;8.00;;
20344;SDS011;10330;48.816;9.278;2023-12-07T06:35:05;16.35;;;8.88;;
20344;SDS011;10330;48.816;9.278;2023-12-07T06:37:32;44.63;;;20.77;;
20344;SDS011;10330;48.816;9.278;2023-12-07T06:39:58;38.55;;;18.02;;
20344;SDS011;10330;48.816;9.278;2023-12-07T06:42:26;25.67;;;12.48;;
20344;SDS011;10330;48.816;9.278;2023-12-07T06:44:53;21.05;;;10.18;;
20344;SDS011;10330;48.816;9.278;2023-12-07T06:47:19;16.52;;;8.95;;
20344;SDS011;10330;48.816;9.278;2023-12-07T06:49:45;18.98;;;9.00;;
20344;SDS011;10330;48.816;9.278;2023-12-07T06:52:12;21.13;;;9.87;;
20344;SDS011;10330;48.816;9.278;2023-12-07T06:54:38;19.30;;;10.65;;
20344;SDS011;10330;48.816;9.278;2023-12-07T06:57:04;28.50;;;14.15;;
20344;SDS011;10330;48.816;9.278;2023-12-07T06:59:32;18.25;;;9.85;;
20344;SDS011;10330;48.816;9.278;2023-12-07T07:01:59;18.67;;;9.02;;
20344;SDS011;10330;48.816;9.278;2023-12-07T07:04:25;22.42;;;9.10;;
20344;SDS011;10330;48.816;9.278;2023-12-07T07:06:51;19.65;;;10.57;;
20344;SDS011;10330;48.816;9.278;2023-12-07T07:09:17;20.02;;;10.50;;
20344;SDS011;10330;48.816;9.278;2023-12-07T07:11:47;19.52;;;9.68;;
20344;SDS011;10330;48.816;9.278;2023-12-07T07:14:14;36.80;;;17.30;;
20344;SDS011;10330;48.816;9.278;2023-12-07T07:16:41;36.75;;;17.20;;
20344;SDS011;10330;48.816;9.278;2023-12-07T07:19:07;27.88;;;12.80;;
20344;SDS011;10330;48.816;9.278;2023-12-07T07:21:34;18.67;;;9.57;;
20344;SDS011;10330;48.816;9.278;2023-12-07T07:24:02;18.58;;;9.55;;
20344;SDS011;10330;48.816;9.278;2023-12-07T07:26:29;19.38;;;10.18;;
20344;SDS011;10330;48.816;9.278;2023-12-07T07:28:55;21.15;;;9.60;;
20344;SDS011;10330;48.816;9.278;2023-12-07T07:31:21;21.00;;;9.48;;
20344;SDS011;10330;48.816;9.278;2023-12-07T07:33:47;19.50;;;9.68;;
20344;SDS011;10330;48.816;9.278;2023-12-07T07:36:14;15.90;;;9.10;;
20344;SDS011;10330;48.816;9.278;2023-12-07T07:38:41;44.13;;;20.83;;
20344;SDS011;10330;48.816;9.278;2023-12-07T07:41:07;22.27;;;12.00;;
20344;SDS011;10330;48.816;9.278;2023-12-07T07:43:33;25.58;;;10.73;;
20344;SDS011;10330;48.816;9.278;2023-12-07T07:46:00;25.23;;;11.63;;
20344;SDS011;10330;48.816;9.278;2023-12-07T07:48:26;15.35;;;9.45;;
20344;SDS011;10330;48.816;9.278;2023-12-07T07:50:52;14.80;;;10.00;;
20344;SDS011;10330;48.816;9.278;2023-12-07T07:53:19;21.55;;;10.32;;
20344;SDS011;10330;48.816;9.278;2023-12-07T07:55:45;18.83;;;10.48;;
20344;SDS011;10330;48.816;9.278;2023-12-07T07:58:11;19.65;;;9.70;;
20344;SDS011;10330;48.816;9.278;2023-12-07T08:00:37;18.23;;;9.77;;
20344;SDS011;10330;48.816;9.278;2023-12-07T08:03:04;18.45;;;10.20;;
20344;SDS011;10330;48.816;9.278;2023-12-07T08:05:31;19.92;;;9.80;;
20344;SDS011;10330;48.816;9.278;2023-12-07T08:07:57;22.33;;;10.68;;
20344;SDS011;10330;48.816;9.278;2023-12-07T08:10:23;20.30;;;10.38;;
20344;SDS011;10330;48.816;9.278;2023-12-07T08:12:49;19.65;;;10.45;;
20344;SDS011;10330;48.816;9.278;2023-12-07T08:15:16;26.58;;;10.93;;
20344;SDS011;10330;48.816;9.278;2023-12-07T08:17:42;21.00;;;11.38;;
20344;SDS011;10330;48.816;9.278;2023-12-07T08:20:08;24.85;;;11.70;;
20344;SDS011;10330;48.816;9.278;2023-12-07T08:22:40;23.70;;;11.82;;
20344;SDS011;10330;48.816;9.278;2023-12-07T08:25:09;17.10;;;10.50;;
20344;SDS011;10330;48.816;9.278;2023-12-07T08:27:37;20.67;;;10.68;;
20344;SDS011;10330;48.816;9.278;2023-12-07T08:30:04;20.38;;;10.75;;
20344;SDS011;10330;48.816;9.278;2023-12-07T08:32:31;16.35;;;10.20;;
20344;SDS011;10330;48.816;9.278;2023-12-07T08:34:57;18.33;;;10.25;;
20344;SDS011;10330;48.816;9.278;2023-12-07T08:37:23;20.67;;;11.65;;
20344;SDS011;10330;48.816;9.278;2023-12-07T08:39:50;18.67;;;10.07;;
20344;SDS011;10330;48.816;9.278;2023-12-07T08:42:16;21.40;;;11.05;;
20344;SDS011;10330;48.816;9.278;2023-12-07T08:44:42;43.90;;;19.40;;
20344;SDS011;10330;48.816;9.278;2023-12-07T08:47:09;22.52;;;12.10;;
20344;SDS011;10330;48.816;9.278;2023-12-07T08:49:35;19.23;;;10.93;;
20344;SDS011;10330;48.816;9.278;2023-12-07T08:52:02;19.27;;;10.32;;
20344;SDS011;10330;48.816;9.278;2023-12-07T08:54:28;20.02;;;10.70;;
20344;SDS011;10330;48.816;9.278;2023-12-07T08:56:55;19.33;;;11.75;;
20344;SDS011;10330;48.816;9.278;2023-12-07T08:59:21;20.40;;;10.23;;
20344;SDS011;10330;48.816;9.278;2023-12-07T09:01:47;16.73;;;9.05;;
20344;SDS011;10330;48.816;9.278;2023-12-07T09:04:13;21.60;;;11.20;;
20344;SDS011;10330;48.816;9.278;2023-12-07T09:06:40;20.88;;;9.98;;
20344;SDS011;10330;48.816;9.278;2023-12-07T09:09:06;14.13;;;8.63;;
20344;SDS011;10330;48.816;9.278;2023-12-07T09:11:32;20.80;;;10.40;;
20344;SDS011;10330;48.816;9.278;2023-12-07T09:13:58;15.98;;;9.60;;
20344;SDS011;10330;48.816;9.278;2023-12-07T09:16:25;16.25;;;9.55;;
20344;SDS011;10330;48.816;9.278;2023-12-07T09:18:51;13.30;;;8.60;;
20344;SDS011;10330;48.816;9.278;2023-12-07T09:21:18;14.05;;;8.85;;
20344;SDS011;10330;48.816;9.278;2023-12-07T09:23:44;13.35;;;9.07;;
20344;SDS011;10330;48.816;9.278;2023-12-07T09:26:10;14.95;;;8.40;;
20344;SDS011;10330;48.816;9.278;2023-12-07T09:28:36;18.15;;;10.32;;
20344;SDS011;10330;48.816;9.278;2023-12-07T09:31:05;15.82;;;9.57;;
20344;SDS011;10330;48.816;9.278;2023-12-07T09:33:31;17.92;;;9.05;;
20344;SDS011;10330;48.816;9.278;2023-12-07T09:35:58;17.77;;;9.15;;
20344;SDS011;10330;48.816;9.278;2023-12-07T09:38:24;17.88;;;10.13;;
20344;SDS011;10330;48.816;9.278;2023-12-07T09:40:53;21.77;;;9.95;;
20344;SDS011;10330;48.816;9.278;2023-12-07T09:43:21;16.60;;;9.35;;
20344;SDS011;10330;48.816;9.278;2023-12-07T09:45:47;14.77;;;8.75;;
20344;SDS011;10330;48.816;9.278;2023-12-07T09:48:14;15.90;;;9.70;;
20344;SDS011;10330;48.816;9.278;2023-12-07T09:50:44;21.42;;;10.38;;
20344;SDS011;10330;48.816;9.278;2023-12-07T09:53:10;16.45;;;10.30;;
20344;SDS011;10330;48.816;9.278;2023-12-07T09:55:36;16.83;;;9.88;;
20344;SDS011;10330;48.816;9.278;2023-12-07T09:58:03;18.15;;;9.75;;
20344;SDS011;10330;48.816;9.278;2023-12-07T10:00:30;15.27;;;9.18;;
20344;SDS011;10330;48.816;9.278;2023-12-07T10:02:56;12.05;;;8.50;;
20344;SDS011;10330;48.816;9.278;2023-12-07T10:05:23;18.63;;;9.27;;
20344;SDS011;10330;48.816;9.278;2023-12-07T10:07:49;13.98;;;8.60;;
20344;SDS011;10330;48.816;9.278;2023-12-07T10:10:16;13.23;;;7.85;;
20344;SDS011;10330;48.816;9.278;2023-12-07T10:12:44;14.32;;;7.93;;
20344;SDS011;10330;48.816;9.278;2023-12-07T10:15:21;11.77;;;8.00;;
20344;SDS011;10330;48.816;9.278;2023-12-07T10:17:53;21.60;;;11.60;;
20344;SDS011;10330;48.816;9.278;2023-12-07T10:20:20;20.77;;;10.27;;
20344;SDS011;10330;48.816;9.278;2023-12-07T10:23:06;15.70;;;8.55;;
20344;SDS011;10330;48.816;9.278;2023-12-07T10:25:40;17.73;;;8.68;;
20344;SDS011;10330;48.816;9.278;2023-12-07T10:28:08;14.73;;;7.35;;
20344;SDS011;10330;48.816;9.278;2023-12-07T10:30:37;14.10;;;7.82;;
20344;SDS011;10330;48.816;9.278;2023-12-07T10:33:07;8.57;;;5.80;;
20344;SDS011;10330;48.816;9.278;2023-12-07T10:35:37;9.43;;;6.63;;
20344;SDS011;10330;48.816;9.278;2023-12-07T10:38:08;17.67;;;6.80;;
20344;SDS011;10330;48.816;9.278;2023-12-07T10:40:35;12.23;;;6.38;;
20344;SDS011;10330;48.816;9.278;2023-12-07T10:43:02;21.17;;;7.28;;
20344;SDS011;10330;48.816;9.278;2023-12-07T10:45:31;13.75;;;6.93;;
20344;SDS011;10330;48.816;9.278;2023-12-07T10:48:03;9.55;;;6.40;;
20344;SDS011;10330;48.816;9.278;2023-12-07T10:50:34;15.23;;;6.85;;
20344;SDS011;10330;48.816;9.278;2023-12-07T10:53:08;13.43;;;7.07;;
20344;SDS011;10330;48.816;9.278;2023-12-07T10:58:25;9.75;;;6.70;;
20344;SDS011;10330;48.816;9.278;2023-12-07T11:00:52;11.27;;;6.45;;
20344;SDS011;10330;48.816;9.278;2023-12-07T11:03:19;9.85;;;7.00;;
20344;SDS011;10330;48.816;9.278;2023-12-07T11:05:47;9.63;;;6.70;;
20344;SDS011;10330;48.816;9.278;2023-12-07T11:08:21;10.38;;;6.00;;
20344;SDS011;10330;48.816;9.278;2023-12-07T11:11:01;11.85;;;5.85;;
20344;SDS011;10330;48.816;9.278;2023-12-07T11:13:34;11.80;;;6.22;;
20344;SDS011;10330;48.816;9.278;2023-12-07T11:16:03;18.45;;;6.32;;
20344;SDS011;10330;48.816;9.278;2023-12-07T11:18:29;12.38;;;6.43;;
20344;SDS011;10330;48.816;9.278;2023-12-07T11:20:56;9.75;;;6.57;;
20344;SDS011;10330;48.816;9.278;2023-12-07T11:23:23;11.77;;;6.43;;
20344;SDS011;10330;48.816;9.278;2023-12-07T11:25:52;10.27;;;5.97;;
20344;SDS011;10330;48.816;9.278;2023-12-07T11:28:33;10.50;;;6.20;;
20344;SDS011;10330;48.816;9.278;2023-12-07T11:31:00;10.73;;;5.53;;
20344;SDS011;10330;48.816;9.278;2023-12-07T11:33:28;12.18;;;6.10;;
20344;SDS011;10330;48.816;9.278;2023-12-07T11:38:27;8.88;;;5.78;;
20344;SDS011;10330;48.816;9.278;2023-12-07T11:40:54;12.98;;;6.75;;
20344;SDS011;10330;48.816;9.278;2023-12-07T11:46:09;12.98;;;6.68;;
20344;SDS011;10330;48.816;9.278;2023-12-07T11:48:36;9.27;;;5.88;;
20344;SDS011;10330;48.816;9.278;2023-12-07T11:51:03;15.43;;;6.20;;
20344;SDS011;10330;48.816;9.278;2023-12-07T11:53:37;6.72;;;5.53;;
20344;SDS011;10330;48.816;9.278;2023-12-07T11:56:04;13.27;;;6.15;;
20344;SDS011;10330;48.816;9.278;2023-12-07T11:58:32;8.65;;;5.72;;
20344;SDS011;10330;48.816;9.278;2023-12-07T12:01:00;10.10;;;6.13;;
20344;SDS011;10330;48.816;9.278;2023-12-07T12:03:27;8.05;;;5.72;;
20344;SDS011;10330;48.816;9.278;2023-12-07T12:05:55;11.90;;;5.68;;
20344;SDS011;10330;48.816;9.278;2023-12-07T12:08:21;5.35;;;4.47;;
20344;SDS011;10330;48.816;9.278;2023-12-07T12:10:49;10.30;;;5.88;;
20344;SDS011;10330;48.816;9.278;2023-12-07T12:13:18;7.25;;;5.07;;
20344;SDS011;10330;48.816;9.278;2023-12-07T12:15:45;5.60;;;4.32;;
20344;SDS011;10330;48.816;9.278;2023-12-07T12:18:12;11.57;;;4.78;;
20344;SDS011;10330;48.816;9.278;2023-12-07T12:23:10;4.20;;;3.75;;
20344;SDS011;10330;48.816;9.278;2023-12-07T12:25:36;12.93;;;4.65;;
20344;SDS011;10330;48.816;9.278;2023-12-07T12:28:03;7.65;;;4.38;;
20344;SDS011;10330;48.816;9.278;2023-12-07T12:30:31;7.40;;;4.80;;
20344;SDS011;10330;48.816;9.278;2023-12-07T12:32:58;11.43;;;4.70;;
20344;SDS011;10330;48.816;9.278;2023-12-07T12:35:28;6.43;;;4.20;;
20344;SDS011;10330;48.816;9.278;2023-12-07T12:37:54;7.43;;;5.43;;
20344;SDS011;10330;48.816;9.278;2023-12-07T12:40:23;8.85;;;4.03;;
20344;SDS011;10330;48.816;9.278;2023-12-07T12:42:52;6.82;;;4.25;;
20344;SDS011;10330;48.816;9.278;2023-12-07T12:45:19;6.03;;;4.60;;
20344;SDS011;10330;48.816;9.278;2023-12-07T12:47:46;5.13;;;3.53;;
20344;SDS011;10330;48.816;9.278;2023-12-07T12:53:02;5.15;;;3.72;;
20344;SDS011;10330;48.816;9.278;2023-12-07T12:55:31;11.80;;;4.38;;
20344;SDS011;10330;48.816;9.278;2023-12-07T12:57:58;4.28;;;3.50;;
20344;SDS011;10330;48.816;9.278;2023-12-07T13:00:25;6.82;;;4.93;;
20344;SDS011;10330;48.816;9.278;2023-12-07T13:02:52;5.68;;;3.60;;
20344;SDS011;10330;48.816;9.278;2023-12-07T13:05:18;10.80;;;4.15;;
20344;SDS011;10330;48.816;9.278;2023-12-07T13:07:44;8.60;;;4.07;;
20344;SDS011;10330;48.816;9.278;2023-12-07T13:10:14;7.82;;;3.50;;
20344;SDS011;10330;48.816;9.278;2023-12-07T13:12:41;12.00;;;3.50;;
20344;SDS011;10330;48.816;9.278;2023-12-07T13:15:08;3.28;;;2.97;;
20344;SDS011;10330;48.816;9.278;2023-12-07T13:17:36;4.25;;;3.22;;
20344;SDS011;10330;48.816;9.278;2023-12-07T13:20:02;4.32;;;2.10;;
20344;SDS011;10330;48.816;9.278;2023-12-07T13:22:29;7.10;;;2.60;;
20344;SDS011;10330;48.816;9.278;2023-12-07T13:24:55;2.90;;;2.05;;
20344;SDS011;10330;48.816;9.278;2023-12-07T13:27:21;5.45;;;3.00;;
20344;SDS011;10330;48.816;9.278;2023-12-07T13:29:51;2.90;;;2.70;;
20344;SDS011;10330;48.816;9.278;2023-12-07T13:32:17;2.30;;;2.20;;
20344;SDS011;10330;48.816;9.278;2023-12-07T13:34:44;8.10;;;2.70;;
20344;SDS011;10330;48.816;9.278;2023-12-07T13:37:10;7.15;;;2.67;;
20344;SDS011;10330;48.816;9.278;2023-12-07T13:39:36;4.13;;;2.70;;
20344;SDS011;10330;48.816;9.278;2023-12-07T13:42:02;7.47;;;3.38;;
20344;SDS011;10330;48.816;9.278;2023-12-07T13:44:28;2.90;;;2.70;;
20344;SDS011;10330;48.816;9.278;2023-12-07T13:46:55;8.27;;;3.33;;
20344;SDS011;10330;48.816;9.278;2023-12-07T13:49:22;3.90;;;2.78;;
20344;SDS011;10330;48.816;9.278;2023-12-07T13:51:48;5.05;;;2.38;;
20344;SDS011;10330;48.816;9.278;2023-12-07T13:54:14;6.30;;;2.58;;
20344;SDS011;10330;48.816;9.278;2023-12-07T13:56:40;4.20;;;2.75;;
20344;SDS011;10330;48.816;9.278;2023-12-07T13:59:06;3.00;;;2.63;;
20344;SDS011;10330;48.816;9.278;2023-12-07T14:01:36;3.13;;;2.85;;
20344;SDS011;10330;48.816;9.278;2023-12-07T14:06:50;4.15;;;2.85;;
20344;SDS011;10330;48.816;9.278;2023-12-07T14:09:16;2.83;;;2.60;;
20344;SDS011;10330;48.816;9.278;2023-12-07T14:11:43;5.85;;;2.47;;
20344;SDS011;10330;48.816;9.278;2023-12-07T14:14:09;5.15;;;2.08;;
20344;SDS011;10330;48.816;9.278;2023-12-07T14:16:37;6.40;;;2.15;;
20344;SDS011;10330;48.816;9.278;2023-12-07T14:19:05;3.05;;;1.80;;
20344;SDS011;10330;48.816;9.278;2023-12-07T14:21:31;2.20;;;2.00;;
20344;SDS011;10330;48.816;9.278;2023-12-07T14:23:59;1.95;;;1.67;;
20344;SDS011;10330;48.816;9.278;2023-12-07T14:26:25;6.57;;;2.28;;
20344;SDS011;10330;48.816;9.278;2023-12-07T14:28:51;2.05;;;1.88;;
20344;SDS011;10330;48.816;9.278;2023-12-07T14:31:25;2.40;;;2.15;;
20344;SDS011;10330;48.816;9.278;2023-12-07T14:39:28;5.95;;;2.53;;
20344;SDS011;10330;48.816;9.278;2023-12-07T14:41:57;3.13;;;2.17;;
20344;SDS011;10330;48.816;9.278;2023-12-07T14:44:24;6.90;;;1.85;;
20344;SDS011;10330;48.816;9.278;2023-12-07T14:46:50;3.30;;;1.98;;
20344;SDS011;10330;48.816;9.278;2023-12-07T14:49:19;7.05;;;2.50;;
20344;SDS011;10330;48.816;9.278;2023-12-07T14:51:47;3.90;;;2.40;;
20344;SDS011;10330;48.816;9.278;2023-12-07T14:54:13;2.83;;;2.22;;
20344;SDS011;10330;48.816;9.278;2023-12-07T14:56:40;5.40;;;2.20;;